createdAt,value
2022-12-11T00:02:24.684Z,12.600000000000001
2022-12-11T00:07:29.965Z,4.340000000000001
2022-12-11T00:12:36.169Z,2.4799999999999995
2022-12-11T00:17:41.643Z,3.2600000000000002
2022-12-11T00:22:47.617Z,3.4200000000000004
2022-12-11T00:27:52.889Z,3.1
2022-12-11T00:32:59.116Z,4.1
2022-12-11T00:38:04.337Z,3.1399999999999997
2022-12-11T00:43:09.583Z,3.22
2022-12-11T00:48:14.810Z,3.4799999999999995
2022-12-11T00:53:20.049Z,2.7199999999999998
2022-12-11T00:58:26.302Z,1.78
2022-12-11T01:03:31.541Z,1.48
2022-12-11T01:08:41.774Z,1.72
2022-12-11T01:13:47.959Z,2.8000000000000003
2022-12-11T01:18:53.252Z,3.7
2022-12-11T01:23:58.505Z,2.54
2022-12-11T01:29:07.655Z,2.26
2022-12-11T01:34:14.059Z,2.32
2022-12-11T01:39:19.136Z,2.8200000000000003
2022-12-11T01:45:37.257Z,3.2
2022-12-11T01:50:45.481Z,2.1
2022-12-11T01:55:53.661Z,3.3400000000000007
2022-12-11T02:00:59.347Z,18.28
2022-12-11T02:06:04.169Z,13.9
2022-12-11T02:11:20.349Z,12.220000000000002
2022-12-11T02:16:33.619Z,1.8199999999999998
2022-12-11T02:21:48.771Z,5.42
2022-12-11T02:27:21.960Z,6
2022-12-11T02:32:34.575Z,6.5200000000000005
2022-12-11T02:37:45.403Z,6.9799999999999995
2022-12-11T02:48:03.882Z,6.220000000000001
2022-12-11T02:53:14.085Z,6.02
2022-12-11T02:58:28.278Z,6.74
2022-12-11T03:03:33.530Z,7.080000000000001
2022-12-11T03:08:39.785Z,7.8
2022-12-11T03:13:46.961Z,7.5200000000000005
2022-12-11T03:19:08.202Z,8.18
2022-12-11T03:24:19.829Z,7.74
2022-12-11T03:29:30.597Z,10
2022-12-11T03:34:44.830Z,8.64
2022-12-11T03:45:08.522Z,9.6
2022-12-11T03:50:15.488Z,10.98
2022-12-11T03:55:23.762Z,9.74
2022-12-11T04:00:29.997Z,9.080000000000002
2022-12-11T04:05:43.255Z,10
2022-12-11T04:10:49.409Z,9.86
2022-12-11T04:15:54.787Z,10.239999999999998
2022-12-11T04:20:59.947Z,10.440000000000001
2022-12-11T04:26:06.140Z,12.48
2022-12-11T04:31:17.721Z,11.08
2022-12-11T04:36:22.611Z,9.66
2022-12-11T04:41:31.800Z,9.96
2022-12-11T04:46:38.200Z,10.78
2022-12-11T04:51:43.285Z,11.080000000000002
2022-12-11T04:56:49.560Z,12.02
2022-12-11T05:01:56.263Z,10.819999999999999
2022-12-11T05:07:02.008Z,12.26
2022-12-11T05:12:08.209Z,12.280000000000001
2022-12-11T05:17:18.459Z,12.559999999999999
2022-12-11T05:22:31.644Z,14.719999999999999
2022-12-11T05:27:36.923Z,12.84
2022-12-11T05:32:47.102Z,14.84
2022-12-11T05:37:52.386Z,14.440000000000001
2022-12-11T05:42:57.626Z,18.46
2022-12-11T05:48:02.819Z,15.819999999999999
2022-12-11T05:53:08.076Z,17.22
2022-12-11T05:58:13.344Z,15.16
2022-12-11T06:03:24.533Z,16
2022-12-11T06:08:29.939Z,16.119999999999997
2022-12-11T06:13:35.039Z,17.9
2022-12-11T06:18:41.686Z,17.9
2022-12-11T06:23:47.439Z,22.18
2022-12-11T06:28:52.751Z,29.04
2022-12-11T06:33:57.975Z,28.24
2022-12-11T06:39:03.257Z,31.2
2022-12-11T06:44:09.419Z,34.14
2022-12-11T06:49:15.709Z,25.279999999999998
2022-12-11T06:54:25.870Z,37.5
2022-12-11T06:59:31.085Z,24.46
2022-12-11T07:04:36.372Z,28.379999999999995
2022-12-11T07:09:41.605Z,20.94
2022-12-11T07:14:46.847Z,22.000000000000004
2022-12-11T07:19:52.049Z,26.939999999999998
2022-12-11T07:24:58.301Z,41.2
2022-12-11T07:30:03.573Z,33.11999999999999
2022-12-11T07:35:09.120Z,33.56
2022-12-11T07:40:14.411Z,29.46
2022-12-11T07:45:19.252Z,30.26
2022-12-11T07:50:29.538Z,61.32000000000001
2022-12-11T07:55:34.754Z,98
2022-12-11T08:00:44.964Z,57.879999999999995
2022-12-11T08:05:51.204Z,100.17999999999999
2022-12-11T08:10:56.392Z,46.89999999999999
2022-12-11T08:16:03.644Z,65.83999999999999
2022-12-11T08:21:11.898Z,184.42
2022-12-11T08:26:18.131Z,95.74000000000001
2022-12-11T08:31:25.374Z,92.24
2022-12-11T08:36:30.586Z,89.68
2022-12-11T08:41:41.805Z,173.74
2022-12-11T08:46:48.214Z,170.71999999999997
2022-12-11T08:51:54.246Z,88.44
2022-12-11T08:57:00.492Z,64.16000000000001
2022-12-11T09:02:05.796Z,56.48
2022-12-11T09:07:11.004Z,68.42
2022-12-11T09:12:16.234Z,50.12
2022-12-11T09:17:21.735Z,62.67999999999999
2022-12-11T09:22:32.663Z,27.440000000000005
2022-12-11T09:28:18.781Z,30.8
2022-12-11T09:33:24.033Z,24.560000000000002
2022-12-11T09:38:29.285Z,27.28
2022-12-11T09:43:47.772Z,28.959999999999997
2022-12-11T09:48:54.724Z,35.720000000000006
2022-12-11T09:54:03.968Z,32.82000000000001
2022-12-11T09:59:18.159Z,33.779999999999994
2022-12-11T10:04:42.366Z,31.139999999999997
2022-12-11T10:10:00.555Z,33.08
2022-12-11T10:15:25.749Z,40.779999999999994
2022-12-11T10:20:35.948Z,28.859999999999996
2022-12-11T10:25:50.159Z,24.46
2022-12-11T10:31:00.542Z,18.5
2022-12-11T10:36:09.623Z,23.9
2022-12-11T10:41:18.880Z,25.459999999999997
2022-12-11T10:51:37.347Z,30.040000000000003
2022-12-11T10:56:52.701Z,24.18
2022-12-11T11:12:27.177Z,36.96
2022-12-11T11:17:35.410Z,31.619999999999997
2022-12-11T12:57:11.448Z,72.56
2022-12-11T13:06:17.114Z,31.1
2022-12-11T13:11:34.314Z,30.1
2022-12-11T13:16:41.555Z,28.059999999999995
2022-12-11T13:47:55.875Z,34.339999999999996
2022-12-11T13:53:04.090Z,22.12
2022-12-11T13:58:19.273Z,18.66
2022-12-11T14:05:14.492Z,28.419999999999998
2022-12-11T15:07:58.908Z,22.759999999999998
2022-12-11T15:13:36.027Z,20.38
2022-12-11T15:18:25.303Z,37.46
2022-12-11T15:23:53.511Z,32.64
2022-12-11T15:29:28.612Z,46.64
2022-12-11T15:35:40.692Z,32.760000000000005
2022-12-11T15:41:18.874Z,29.979999999999997
2022-12-11T15:46:19.211Z,19.919999999999998
2022-12-11T15:51:19.382Z,23.059999999999995
2022-12-11T15:56:19.630Z,16.16
2022-12-11T16:02:13.765Z,28.7
2022-12-11T17:50:53.454Z,41.160000000000004
2022-12-11T18:10:08.552Z,18.660000000000004
2022-12-11T18:15:10.139Z,17.639999999999997
2022-12-11T18:50:14.522Z,35.76
2022-12-11T18:55:19.806Z,18.32
2022-12-11T19:00:21.096Z,17.9
2022-12-11T19:05:37.397Z,14.24
2022-12-11T19:10:46.617Z,15.5
2022-12-11T19:15:50.729Z,21.36
2022-12-11T19:21:01.584Z,14.34
2022-12-11T19:26:04.188Z,12.679999999999998
2022-12-11T19:31:04.523Z,13.48
2022-12-11T19:36:06.670Z,19.26
2022-12-11T19:41:07.919Z,14.7
2022-12-11T19:46:09.168Z,15.179999999999998
2022-12-11T19:51:10.418Z,12.099999999999998
2022-12-11T19:56:10.667Z,9.719999999999999
2022-12-11T20:01:18.953Z,13.8
2022-12-11T20:06:18.110Z,9.7
2022-12-11T20:11:19.421Z,11.500000000000002
2022-12-11T20:16:28.923Z,7.839999999999999
2022-12-11T20:21:39.805Z,9.780000000000001
2022-12-11T20:26:40.281Z,11.76
2022-12-11T20:31:40.425Z,9.52
2022-12-11T20:36:40.577Z,17.6
2022-12-11T20:41:40.818Z,17.32
2022-12-11T20:46:41.081Z,15.440000000000001
2022-12-11T20:51:40.377Z,14.120000000000001
2022-12-11T20:56:39.567Z,16.9
2022-12-11T21:01:40.980Z,16.02
2022-12-11T21:06:41.057Z,12.54
2022-12-11T21:11:42.421Z,11.639999999999999
2022-12-11T21:16:42.592Z,12.2
2022-12-11T21:21:41.855Z,13.039999999999997
2022-12-11T21:26:42.104Z,12.84
2022-12-11T21:31:42.374Z,13.040000000000001
2022-12-11T21:36:41.579Z,12.6
2022-12-11T21:41:42.809Z,14.12
2022-12-11T21:46:43.106Z,13.34
2022-12-11T21:51:47.031Z,18.7
2022-12-11T21:56:48.567Z,53.35999999999999
2022-12-11T22:02:25.832Z,30.8
2022-12-11T22:08:02.005Z,42.580000000000005
2022-12-11T22:13:48.029Z,61.519999999999996
2022-12-11T22:18:48.308Z,38.04
2022-12-11T22:23:48.533Z,34.36
2022-12-11T22:28:48.808Z,16.339999999999996
2022-12-11T22:33:45.038Z,18.240000000000002
2022-12-11T22:38:45.268Z,16.46
2022-12-11T22:43:45.533Z,13.88
2022-12-11T22:48:45.788Z,16.119999999999997
2022-12-11T22:53:45.999Z,14.680000000000001
2022-12-11T22:58:31.306Z,15.84
2022-12-11T23:02:50.823Z,29.160000000000004
2022-12-11T23:08:26.985Z,17.58
2022-12-11T23:13:23.075Z,20.439999999999998
2022-12-11T23:18:19.405Z,16.639999999999997
2022-12-11T23:23:15.624Z,23.020000000000003
2022-12-11T23:27:31.932Z,14.52
2022-12-11T23:32:32.217Z,16.060000000000002
2022-12-11T23:37:32.491Z,14.059999999999999
2022-12-11T23:42:32.742Z,12.74
2022-12-11T23:47:32.953Z,17.2
2022-12-11T23:52:33.182Z,13.879999999999999
2022-12-11T23:57:33.605Z,16.799999999999997
